Time,TemperatureF,DewpointF,PressureIn,WindDirection,WindDirectionDegrees,WindSpeedMPH,WindSpeedGustMPH,Humidity,HourlyPrecipIn,Conditions,Clouds,dailyrainin,SoftwareType,DateUTC
2013-02-11 00:01:00,44.1,30.2,30.05,South,169,0.0,1.0,58,0.00,,,0.00,meteohub,2013-02-11 08:01:00,
2013-02-11 00:06:00,44.2,27.3,30.04,SSE,168,0.0,1.0,51,0.00,,,0.00,meteohub,2013-02-11 08:06:00,
2013-02-11 00:12:00,44.6,26.6,30.05,SSE,168,0.0,1.0,49,0.00,,,0.00,meteohub,2013-02-11 08:12:00,
2013-02-11 00:17:00,45.0,26.4,30.05,SSE,168,0.0,1.0,48,0.00,,,0.00,meteohub,2013-02-11 08:17:00,
2013-02-11 00:22:00,45.1,25.5,30.05,SSE,168,0.0,1.0,46,0.00,,,0.00,meteohub,2013-02-11 08:22:00,
2013-02-11 00:27:00,45.9,25.7,30.05,SSE,160,0.0,1.0,45,0.00,,,0.00,meteohub,2013-02-11 08:27:00,
2013-02-11 00:32:00,46.9,25.5,30.05,ENE,58,1.0,2.0,43,0.00,,,0.00,meteohub,2013-02-11 08:32:00,
2013-02-11 00:37:00,47.7,25.2,30.06,NE,51,0.0,10.0,41,0.00,,,0.00,meteohub,2013-02-11 08:37:00,
2013-02-11 00:43:00,48.6,24.8,30.06,NE,51,0.0,10.0,39,0.00,,,0.00,meteohub,2013-02-11 08:43:00,
2013-02-11 00:48:00,48.6,24.8,30.06,NE,51,0.0,10.0,39,0.00,,,0.00,meteohub,2013-02-11 08:48:00,
2013-02-11 00:53:00,48.2,24.4,30.06,NE,51,0.0,2.0,39,0.00,,,0.00,meteohub,2013-02-11 08:53:00,
2013-02-11 00:58:00,48.0,24.8,30.06,NE,51,0.0,1.0,40,0.00,,,0.00,meteohub,2013-02-11 08:58:00,
2013-02-11 01:03:00,47.1,25.7,30.06,NE,51,0.0,1.0,43,0.00,,,0.00,meteohub,2013-02-11 09:03:00,
2013-02-11 01:09:00,45.9,25.2,30.06,NE,51,0.0,1.0,44,0.00,,,0.00,meteohub,2013-02-11 09:09:00,
2013-02-11 01:14:00,45.1,26.1,30.06,NE,52,0.0,1.0,47,0.00,,,0.00,meteohub,2013-02-11 09:14:00,
2013-02-11 01:19:00,44.1,26.1,30.06,NE,52,0.0,1.0,49,0.00,,,0.00,meteohub,2013-02-11 09:19:00,
2013-02-11 01:24:00,43.3,25.5,30.06,NE,52,0.0,1.0,49,0.00,,,0.00,meteohub,2013-02-11 09:24:00,
2013-02-11 01:29:00,43.3,25.5,30.06,NE,52,0.0,1.0,49,0.00,,,0.00,meteohub,2013-02-11 09:29:00,
2013-02-11 01:34:00,43.0,27.0,30.07,NE,52,0.0,1.0,53,0.00,,,0.00,meteohub,2013-02-11 09:34:00,
2013-02-11 01:40:00,42.4,26.1,30.07,NE,52,0.0,0.0,52,0.00,,,0.00,meteohub,2013-02-11 09:40:00,
2013-02-11 01:45:00,42.1,26.2,30.07,NE,52,0.0,0.0,53,0.00,,,0.00,meteohub,2013-02-11 09:45:00,
2013-02-11 01:50:00,41.9,25.2,30.07,NE,52,0.0,0.0,51,0.00,,,0.00,meteohub,2013-02-11 09:50:00,
2013-02-11 01:55:00,42.1,24.8,30.07,NE,52,0.0,0.0,50,0.00,,,0.00,meteohub,2013-02-11 09:55:00,
2013-02-11 02:00:00,42.3,25.3,30.06,NE,52,0.0,0.0,51,0.00,,,0.00,meteohub,2013-02-11 10:00:00,
2013-02-11 02:06:00,42.4,25.2,30.06,NE,52,0.0,0.0,50,0.00,,,0.00,meteohub,2013-02-11 10:06:00,
2013-02-11 02:11:00,42.6,24.8,30.06,NE,52,0.0,0.0,49,0.00,,,0.00,meteohub,2013-02-11 10:11:00,
2013-02-11 02:16:00,43.3,25.5,30.07,NE,52,0.0,0.0,49,0.00,,,0.00,meteohub,2013-02-11 10:16:00,
2013-02-11 02:21:00,43.3,25.0,30.07,NE,52,0.0,0.0,48,0.00,,,0.00,meteohub,2013-02-11 10:21:00,
2013-02-11 02:26:00,43.3,25.5,30.07,NE,52,0.0,0.0,49,0.00,,,0.00,meteohub,2013-02-11 10:26:00,
2013-02-11 02:31:00,43.2,24.8,30.07,NE,52,0.0,0.0,48,0.00,,,0.00,meteohub,2013-02-11 10:31:00,
2013-02-11 02:37:00,43.0,25.2,30.07,NE,52,0.0,0.0,49,0.00,,,0.00,meteohub,2013-02-11 10:37:00,
2013-02-11 02:42:00,42.6,24.8,30.07,NE,52,0.0,0.0,49,-99.99,,,0.00,meteohub,2013-02-11 10:42:00,
2013-02-11 02:47:00,42.4,25.2,30.07,NE,52,0.0,0.0,50,0.00,,,0.00,meteohub,2013-02-11 10:47:00,
2013-02-11 02:52:00,42.4,25.5,30.08,NE,52,0.0,0.0,51,0.00,,,0.00,meteohub,2013-02-11 10:52:00,
2013-02-11 02:57:00,42.3,25.9,30.07,NE,52,0.0,0.0,52,0.00,,,0.00,meteohub,2013-02-11 10:57:00,
2013-02-11 03:02:00,42.1,25.7,30.07,NE,52,0.0,0.0,52,0.00,,,0.00,meteohub,2013-02-11 11:02:00,
2013-02-11 03:07:00,41.7,25.3,30.07,NE,52,0.0,0.0,52,0.00,,,0.00,meteohub,2013-02-11 11:07:00,
2013-02-11 03:12:00,41.5,25.7,30.07,NE,52,0.0,0.0,53,0.00,,,0.00,meteohub,2013-02-11 11:12:00,
2013-02-11 03:17:00,41.5,26.1,30.07,NE,52,0.0,1.0,54,0.00,,,0.00,meteohub,2013-02-11 11:17:00,
2013-02-11 03:23:00,41.4,25.5,30.07,NE,52,0.0,1.0,53,0.00,,,0.00,meteohub,2013-02-11 11:23:00,
2013-02-11 03:28:00,41.5,26.1,30.07,NE,52,0.0,6.0,54,0.00,,,0.00,meteohub,2013-02-11 11:28:00,
2013-02-11 03:34:00,41.5,25.2,30.07,NE,52,0.0,6.0,52,0.00,,,0.00,meteohub,2013-02-11 11:34:00,
2013-02-11 03:39:00,41.5,25.2,30.07,NE,52,0.0,6.0,52,0.00,,,0.00,meteohub,2013-02-11 11:39:00,
2013-02-11 03:44:00,41.7,25.0,30.06,NE,52,1.0,1.0,51,0.00,,,0.00,meteohub,2013-02-11 11:44:00,
2013-02-11 03:49:00,42.4,24.6,30.07,NE,52,0.0,1.0,49,0.00,,,0.00,meteohub,2013-02-11 11:49:00,
2013-02-11 03:54:00,42.1,25.3,30.07,NE,52,0.0,1.0,51,0.00,,,0.00,meteohub,2013-02-11 11:54:00,
2013-02-11 03:59:00,41.5,25.2,30.08,NE,52,0.0,1.0,52,0.00,,,0.00,meteohub,2013-02-11 11:59:00,
2013-02-11 04:05:00,41.0,23.7,30.08,NE,52,0.0,0.0,50,0.00,,,0.00,meteohub,2013-02-11 12:05:00,
2013-02-11 04:10:00,41.2,23.9,30.07,NE,52,0.0,0.0,50,0.00,,,0.00,meteohub,2013-02-11 12:10:00,
2013-02-11 04:15:00,41.4,24.1,30.08,NE,52,0.0,0.0,50,0.00,,,0.00,meteohub,2013-02-11 12:15:00,
2013-02-11 04:20:00,41.7,23.9,30.08,NE,52,0.0,1.0,49,0.00,,,0.00,meteohub,2013-02-11 12:20:00,
2013-02-11 04:25:00,41.9,24.6,30.08,NE,52,0.0,1.0,50,0.00,,,0.00,meteohub,2013-02-11 12:25:00,
2013-02-11 04:31:00,40.6,24.8,30.09,NE,52,0.0,1.0,53,0.00,,,0.00,meteohub,2013-02-11 12:31:00,
2013-02-11 04:36:00,40.1,24.8,30.09,NE,52,0.0,1.0,54,0.00,,,0.00,meteohub,2013-02-11 12:36:00,
2013-02-11 04:41:00,39.7,24.1,30.09,NE,52,0.0,1.0,53,0.00,,,0.00,meteohub,2013-02-11 12:41:00,
2013-02-11 04:46:00,39.9,23.7,30.09,NE,52,0.0,0.0,52,0.00,,,0.00,meteohub,2013-02-11 12:46:00,
2013-02-11 04:51:00,39.9,24.3,30.09,NE,52,0.0,0.0,53,0.00,,,0.00,meteohub,2013-02-11 12:51:00,
2013-02-11 04:56:00,39.6,24.3,30.10,NE,52,0.0,0.0,54,0.00,,,0.00,meteohub,2013-02-11 12:56:00,
2013-02-11 05:02:00,39.6,24.3,30.10,NE,52,0.0,0.0,54,0.00,,,0.00,meteohub,2013-02-11 13:02:00,
2013-02-11 05:07:00,39.6,25.5,30.10,NE,52,0.0,0.0,57,0.00,,,0.00,meteohub,2013-02-11 13:07:00,
2013-02-11 05:12:00,39.6,26.1,30.10,NE,52,0.0,0.0,58,0.00,,,0.00,meteohub,2013-02-11 13:12:00,
2013-02-11 05:17:00,39.4,27.1,30.10,NE,52,0.0,0.0,61,0.00,,,0.00,meteohub,2013-02-11 13:17:00,
2013-02-11 05:22:00,39.6,28.8,30.10,NE,52,0.0,0.0,65,0.00,,,0.00,meteohub,2013-02-11 13:22:00,
2013-02-11 05:28:00,39.6,28.0,30.11,NE,52,0.0,0.0,63,0.00,,,0.00,meteohub,2013-02-11 13:28:00,
2013-02-11 05:33:00,39.2,28.0,30.11,NE,52,0.0,0.0,64,0.00,,,0.00,meteohub,2013-02-11 13:33:00,
2013-02-11 05:38:00,39.0,28.9,30.11,NE,52,0.0,0.0,67,0.00,,,0.00,meteohub,2013-02-11 13:38:00,
2013-02-11 05:43:00,38.8,28.4,30.11,NE,52,0.0,0.0,66,0.00,,,0.00,meteohub,2013-02-11 13:43:00,
2013-02-11 05:48:00,39.2,29.8,30.12,NE,52,0.0,0.0,69,0.00,,,0.00,meteohub,2013-02-11 13:48:00,
2013-02-11 05:53:00,39.6,30.2,30.12,NE,52,0.0,0.0,69,0.00,,,0.00,meteohub,2013-02-11 13:53:00,
2013-02-11 05:59:00,39.6,30.6,30.12,NE,52,0.0,0.0,70,0.00,,,0.00,meteohub,2013-02-11 13:59:00,
2013-02-11 06:04:00,39.6,30.2,30.12,NE,52,0.0,0.0,69,0.00,,,0.00,meteohub,2013-02-11 14:04:00,
2013-02-11 06:09:00,39.4,29.7,30.12,NE,52,0.0,0.0,68,0.00,,,0.00,meteohub,2013-02-11 14:09:00,
2013-02-11 06:14:00,39.6,29.5,30.12,NE,52,0.0,0.0,67,0.00,,,0.00,meteohub,2013-02-11 14:14:00,
2013-02-11 06:19:00,39.6,29.5,30.12,NE,52,0.0,0.0,67,0.00,,,0.00,meteohub,2013-02-11 14:19:00,
2013-02-11 06:25:00,39.4,28.9,30.12,NE,52,0.0,0.0,66,0.00,,,0.00,meteohub,2013-02-11 14:25:00,
2013-02-11 06:30:00,39.2,29.1,30.13,NE,52,0.0,0.0,67,0.00,,,0.00,meteohub,2013-02-11 14:30:00,
2013-02-11 06:35:00,39.0,28.6,30.13,NE,52,0.0,0.0,66,0.00,,,0.00,meteohub,2013-02-11 14:35:00,
2013-02-11 06:40:00,39.4,28.6,30.13,NE,52,0.0,0.0,65,0.00,,,0.00,meteohub,2013-02-11 14:40:00,
2013-02-11 06:45:00,39.0,28.6,30.13,NE,52,0.0,0.0,66,0.00,,,0.00,meteohub,2013-02-11 14:45:00,
2013-02-11 06:51:00,39.2,28.0,30.13,NE,52,0.0,0.0,64,0.00,,,0.00,meteohub,2013-02-11 14:51:00,
2013-02-11 06:56:00,39.4,27.9,30.13,NE,52,0.0,0.0,63,0.00,,,0.00,meteohub,2013-02-11 14:56:00,
2013-02-11 07:01:00,39.6,28.0,30.13,NE,52,0.0,0.0,63,0.00,,,0.00,meteohub,2013-02-11 15:01:00,
2013-02-11 07:06:00,39.9,28.0,30.14,NE,52,0.0,0.0,62,0.00,,,0.00,meteohub,2013-02-11 15:06:00,
2013-02-11 07:11:00,40.3,28.2,30.13,NE,52,0.0,0.0,62,0.00,,,0.00,meteohub,2013-02-11 15:11:00,
2013-02-11 07:16:00,40.6,28.6,30.14,NE,56,0.0,0.0,62,0.00,,,0.00,meteohub,2013-02-11 15:16:00,
2013-02-11 07:21:00,41.2,29.5,30.14,ENE,58,0.0,0.0,63,0.00,,,0.00,meteohub,2013-02-11 15:21:00,
2013-02-11 07:27:00,40.6,29.1,30.14,ENE,59,0.0,1.0,63,0.00,,,0.00,meteohub,2013-02-11 15:27:00,
2013-02-11 07:32:00,41.2,30.0,30.14,ENE,61,0.0,1.0,64,0.00,,,0.00,meteohub,2013-02-11 15:32:00,
2013-02-11 07:37:00,41.7,30.4,30.14,ENE,61,0.0,1.0,64,0.00,,,0.00,meteohub,2013-02-11 15:37:00,
2013-02-11 07:42:00,41.9,30.2,30.14,ENE,61,0.0,1.0,63,0.00,,,0.00,meteohub,2013-02-11 15:42:00,
2013-02-11 07:47:00,42.1,30.4,30.14,ENE,61,0.0,1.0,63,0.00,,,0.00,meteohub,2013-02-11 15:47:00,
2013-02-11 07:53:00,42.4,30.7,30.15,ENE,61,0.0,1.0,63,0.00,,,0.00,meteohub,2013-02-11 15:53:00,
2013-02-11 07:58:00,42.6,30.6,30.16,ENE,61,0.0,1.0,62,0.00,,,0.00,meteohub,2013-02-11 15:58:00,
2013-02-11 08:03:00,42.8,30.7,30.15,ENE,61,0.0,1.0,62,0.00,,,0.00,meteohub,2013-02-11 16:03:00,
2013-02-11 08:08:00,43.0,31.6,30.16,ENE,61,0.0,1.0,64,0.00,,,0.00,meteohub,2013-02-11 16:08:00,
2013-02-11 08:13:00,43.3,32.0,30.16,ENE,61,0.0,0.0,64,0.00,,,0.00,meteohub,2013-02-11 16:13:00,
2013-02-11 08:18:00,44.1,32.7,30.16,ENE,61,0.0,0.0,64,0.00,,,0.00,meteohub,2013-02-11 16:18:00,
2013-02-11 08:24:00,44.4,33.1,30.16,ENE,61,0.0,0.0,64,0.00,,,0.00,meteohub,2013-02-11 16:24:00,
2013-02-11 08:29:00,44.8,33.3,30.16,ENE,61,0.0,0.0,64,0.00,,,0.00,meteohub,2013-02-11 16:29:00,
2013-02-11 08:34:00,44.8,32.9,30.16,ENE,61,0.0,0.0,63,0.00,,,0.00,meteohub,2013-02-11 16:34:00,
2013-02-11 08:39:00,44.4,32.5,30.16,ENE,61,0.0,0.0,63,0.00,,,0.00,meteohub,2013-02-11 16:39:00,
2013-02-11 08:44:00,44.6,33.3,30.16,ENE,61,0.0,0.0,64,0.00,,,0.00,meteohub,2013-02-11 16:44:00,
2013-02-11 08:50:00,44.8,33.8,30.17,ENE,61,0.0,0.0,65,0.00,,,0.00,meteohub,2013-02-11 16:50:00,
2013-02-11 08:55:00,44.8,33.8,30.17,ENE,61,0.0,0.0,65,0.00,,,0.00,meteohub,2013-02-11 16:55:00,
2013-02-11 09:00:00,45.0,33.4,30.17,ENE,61,0.0,0.0,64,0.00,,,0.00,meteohub,2013-02-11 17:00:00,
2013-02-11 09:05:00,45.1,33.6,30.17,ENE,61,0.0,0.0,64,0.00,,,0.00,meteohub,2013-02-11 17:05:00,
2013-02-11 09:10:00,45.3,33.8,30.17,ENE,61,0.0,0.0,64,0.00,,,0.00,meteohub,2013-02-11 17:10:00,
2013-02-11 09:15:00,45.7,33.8,30.17,ENE,61,0.0,0.0,63,0.00,,,0.00,meteohub,2013-02-11 17:15:00,
2013-02-11 09:21:00,45.9,34.3,30.18,ENE,61,0.0,1.0,64,0.00,,,0.00,meteohub,2013-02-11 17:21:00,
2013-02-11 09:26:00,46.0,34.5,30.18,ENE,61,0.0,1.0,64,0.00,,,0.00,meteohub,2013-02-11 17:26:00,
2013-02-11 09:31:00,46.2,34.7,30.18,ENE,61,0.0,1.0,64,0.00,,,0.00,meteohub,2013-02-11 17:31:00,
2013-02-11 09:36:00,46.6,35.4,30.18,ENE,59,0.0,0.0,65,0.00,,,0.00,meteohub,2013-02-11 17:36:00,
2013-02-11 09:41:00,46.8,35.2,30.19,NE,56,1.0,0.0,64,0.00,,,0.00,meteohub,2013-02-11 17:41:00,
2013-02-11 09:47:00,46.8,35.6,30.19,NE,56,0.0,3.0,65,0.00,,,0.00,meteohub,2013-02-11 17:47:00,
2013-02-11 09:52:00,47.5,36.3,30.19,NE,56,0.0,3.0,65,0.00,,,0.00,meteohub,2013-02-11 17:52:00,
2013-02-11 09:57:00,47.8,36.3,30.19,NE,56,0.0,3.0,64,0.00,,,0.00,meteohub,2013-02-11 17:57:00,
2013-02-11 10:02:00,48.4,36.7,30.19,ENE,57,0.0,2.0,64,0.00,,,0.00,meteohub,2013-02-11 18:02:00,
2013-02-11 10:07:00,48.4,36.7,30.20,NE,56,0.0,2.0,64,0.00,,,0.00,meteohub,2013-02-11 18:07:00,
2013-02-11 10:12:00,48.4,36.7,30.20,NE,52,1.0,3.0,64,0.00,,,0.00,meteohub,2013-02-11 18:12:00,
2013-02-11 10:17:00,48.2,36.7,30.20,NNE,31,1.0,3.0,64,0.00,,,0.00,meteohub,2013-02-11 18:17:00,
2013-02-11 10:23:00,47.8,37.0,30.20,NNE,28,2.0,3.0,66,0.00,,,0.00,meteohub,2013-02-11 18:23:00,
2013-02-11 10:28:00,48.4,37.2,30.20,NNE,27,1.0,3.0,65,0.00,,,0.00,meteohub,2013-02-11 18:28:00,
2013-02-11 10:33:00,48.7,37.6,30.20,NNE,29,1.0,2.0,65,0.00,,,0.00,meteohub,2013-02-11 18:33:00,
2013-02-11 10:38:00,49.3,37.6,30.20,NNE,30,0.0,2.0,64,0.00,,,0.00,meteohub,2013-02-11 18:38:00,
2013-02-11 10:43:00,49.3,37.2,30.20,NNE,28,1.0,2.0,63,0.00,,,0.00,meteohub,2013-02-11 18:43:00,
2013-02-11 10:49:00,49.8,37.8,30.20,NNE,27,1.0,2.0,63,0.00,,,0.00,meteohub,2013-02-11 18:49:00,
2013-02-11 10:54:00,50.0,38.3,30.20,NNE,27,0.0,2.0,64,0.00,,,0.00,meteohub,2013-02-11 18:54:00,
2013-02-11 10:59:00,50.2,37.6,30.20,WNW,289,0.0,3.0,62,0.00,,,0.00,meteohub,2013-02-11 18:59:00,
2013-02-11 11:04:00,50.4,37.4,30.20,West,259,1.0,3.0,61,0.00,,,0.00,meteohub,2013-02-11 19:04:00,
2013-02-11 11:09:00,50.7,37.8,30.20,WSW,256,1.0,3.0,61,0.00,,,0.00,meteohub,2013-02-11 19:09:00,
2013-02-11 11:15:00,51.1,37.2,30.20,WSW,254,1.0,2.0,59,0.00,,,0.00,meteohub,2013-02-11 19:15:00,
2013-02-11 11:20:00,51.1,37.8,30.19,WSW,254,0.0,2.0,60,0.00,,,0.00,meteohub,2013-02-11 19:20:00,
2013-02-11 11:25:00,51.1,38.5,30.19,WSW,254,1.0,2.0,62,0.00,,,0.00,meteohub,2013-02-11 19:25:00,
2013-02-11 11:30:00,51.6,38.7,30.19,WSW,253,0.0,2.0,61,0.00,,,0.00,meteohub,2013-02-11 19:30:00,
2013-02-11 11:35:00,52.2,37.8,30.19,South,180,0.0,2.0,58,0.00,,,0.00,meteohub,2013-02-11 19:35:00,
2013-02-11 11:40:00,52.3,37.6,30.19,South,181,1.0,3.0,57,0.00,,,0.00,meteohub,2013-02-11 19:40:00,
2013-02-11 11:46:00,52.0,37.6,30.19,SW,224,6.0,6.0,58,0.00,,,0.00,meteohub,2013-02-11 19:46:00,
2013-02-11 11:51:00,52.5,37.8,30.19,SW,223,0.0,10.0,57,0.00,,,0.00,meteohub,2013-02-11 19:51:00,
2013-02-11 11:56:00,52.9,37.2,30.18,SW,223,0.0,10.0,55,0.00,,,0.00,meteohub,2013-02-11 19:56:00,
2013-02-11 12:01:00,53.1,36.9,30.18,SW,214,0.0,10.0,54,0.00,,,0.00,meteohub,2013-02-11 20:01:00,
2013-02-11 12:06:00,53.4,36.7,30.18,SW,215,1.0,2.0,53,0.00,,,0.00,meteohub,2013-02-11 20:06:00,
2013-02-11 12:12:00,53.6,36.9,30.17,SW,214,0.0,2.0,53,0.00,,,0.00,meteohub,2013-02-11 20:12:00,
2013-02-11 12:17:00,53.6,37.4,30.17,SW,214,0.0,2.0,54,0.00,,,0.00,meteohub,2013-02-11 20:17:00,
2013-02-11 12:22:00,53.8,36.5,30.17,South,175,0.0,2.0,52,0.00,,,0.00,meteohub,2013-02-11 20:22:00,
2013-02-11 12:27:00,54.1,36.0,30.17,South,181,1.0,3.0,50,0.00,,,0.00,meteohub,2013-02-11 20:27:00,
2013-02-11 12:32:00,53.8,35.6,30.17,South,181,0.0,3.0,50,0.00,,,0.00,meteohub,2013-02-11 20:32:00,
2013-02-11 12:37:00,54.0,35.8,30.17,South,181,0.0,3.0,50,0.00,,,0.00,meteohub,2013-02-11 20:37:00,
2013-02-11 12:43:00,54.5,36.3,30.16,South,181,1.0,3.0,50,0.00,,,0.00,meteohub,2013-02-11 20:43:00,
2013-02-11 12:48:00,54.9,36.5,30.16,South,181,2.0,4.0,50,0.00,,,0.00,meteohub,2013-02-11 20:48:00,
2013-02-11 12:53:00,55.4,35.4,30.16,South,181,1.0,4.0,47,0.00,,,0.00,meteohub,2013-02-11 20:53:00,
2013-02-11 12:58:00,55.8,35.2,30.16,South,181,0.0,4.0,46,0.00,,,0.00,meteohub,2013-02-11 20:58:00,
2013-02-11 13:03:00,55.9,36.5,30.16,South,181,0.0,2.0,48,0.00,,,0.00,meteohub,2013-02-11 21:03:00,
2013-02-11 13:09:00,55.8,36.3,30.16,South,183,1.0,2.0,48,0.00,,,0.00,meteohub,2013-02-11 21:09:00,
2013-02-11 13:14:00,55.6,35.6,30.16,South,183,0.0,5.0,47,0.00,,,0.00,meteohub,2013-02-11 21:14:00,
2013-02-11 13:19:00,56.5,37.0,30.16,South,184,4.0,5.0,48,0.00,,,0.00,meteohub,2013-02-11 21:19:00,
2013-02-11 13:24:00,56.5,36.5,30.16,South,184,0.0,6.0,47,0.00,,,0.00,meteohub,2013-02-11 21:24:00,
2013-02-11 13:29:00,56.7,36.7,30.16,South,186,3.0,6.0,47,0.00,,,0.00,meteohub,2013-02-11 21:29:00,
2013-02-11 13:35:00,56.7,37.2,30.15,South,190,2.0,6.0,48,0.00,,,0.00,meteohub,2013-02-11 21:35:00,
2013-02-11 13:40:00,56.7,36.7,30.15,SSW,192,2.0,6.0,47,0.00,,,0.00,meteohub,2013-02-11 21:40:00,
2013-02-11 13:45:00,56.5,36.5,30.15,SSW,192,1.0,6.0,47,0.00,,,0.00,meteohub,2013-02-11 21:45:00,
2013-02-11 13:53:00,57.2,36.7,30.15,SSW,193,2.0,6.0,46,0.00,,,0.00,meteohub,2013-02-11 21:53:00,
2013-02-11 13:58:00,57.4,36.1,30.15,SSW,193,1.0,6.0,45,0.00,,,0.00,meteohub,2013-02-11 21:58:00,
2013-02-11 14:03:00,57.0,36.5,30.15,SSW,193,1.0,6.0,46,0.00,,,0.00,meteohub,2013-02-11 22:03:00,
2013-02-11 14:08:00,57.4,35.1,30.15,SSW,194,0.0,7.0,43,0.00,,,0.00,meteohub,2013-02-11 22:08:00,
2013-02-11 14:13:00,57.0,35.2,30.15,SSW,194,2.0,7.0,44,0.00,,,0.00,meteohub,2013-02-11 22:13:00,
2013-02-11 14:18:00,57.4,35.1,30.15,SSW,195,0.0,7.0,43,0.00,,,0.00,meteohub,2013-02-11 22:18:00,
2013-02-11 14:24:00,57.7,36.0,30.15,SSW,195,4.0,7.0,44,0.00,,,0.00,meteohub,2013-02-11 22:24:00,
2013-02-11 14:29:00,57.6,35.8,30.15,SSW,199,2.0,7.0,44,0.00,,,0.00,meteohub,2013-02-11 22:29:00,
2013-02-11 14:34:00,57.9,35.6,30.14,SSW,199,0.0,7.0,43,0.00,,,0.00,meteohub,2013-02-11 22:34:00,
2013-02-11 14:39:00,58.3,35.2,30.14,SSW,199,3.0,7.0,42,0.00,,,0.00,meteohub,2013-02-11 22:39:00,
2013-02-11 14:44:00,57.9,36.1,30.14,SSW,200,4.0,10.0,44,0.00,,,0.00,meteohub,2013-02-11 22:44:00,
2013-02-11 14:50:00,57.9,36.1,30.15,SSW,203,4.0,10.0,44,0.00,,,0.00,meteohub,2013-02-11 22:50:00,
2013-02-11 14:55:00,57.4,36.1,30.15,SSW,203,4.0,10.0,45,0.00,,,0.00,meteohub,2013-02-11 22:55:00,
2013-02-11 15:03:00,57.7,36.0,30.15,SSW,203,4.0,7.0,44,0.00,,,0.00,meteohub,2013-02-11 23:03:00,
2013-02-11 15:08:00,58.5,35.4,30.15,SSW,203,1.0,6.0,42,0.00,,,0.00,meteohub,2013-02-11 23:08:00,
2013-02-11 15:13:00,58.5,35.4,30.15,SSW,203,1.0,5.0,42,0.00,,,0.00,meteohub,2013-02-11 23:13:00,
2013-02-11 15:18:00,58.3,35.2,30.15,SSW,203,2.0,6.0,42,0.00,,,0.00,meteohub,2013-02-11 23:18:00,
2013-02-11 15:23:00,57.9,35.6,30.15,SSW,203,1.0,6.0,43,0.00,,,0.00,meteohub,2013-02-11 23:23:00,
2013-02-11 15:28:00,58.6,35.1,30.14,SSW,203,2.0,6.0,41,0.00,,,0.00,meteohub,2013-02-11 23:28:00,
2013-02-11 15:34:00,59.0,35.4,30.14,SSW,203,2.0,5.0,41,0.00,,,0.00,meteohub,2013-02-11 23:34:00,
2013-02-11 15:39:00,58.8,35.8,30.15,SSW,200,6.0,6.0,42,0.00,,,0.00,meteohub,2013-02-11 23:39:00,
2013-02-11 15:44:00,57.7,35.4,30.15,SSW,196,3.0,7.0,43,0.00,,,0.00,meteohub,2013-02-11 23:44:00,
2013-02-11 15:49:00,57.6,35.8,30.15,SSW,196,1.0,7.0,44,0.00,,,0.00,meteohub,2013-02-11 23:49:00,
2013-02-11 15:54:00,57.4,35.6,30.15,SSW,196,4.0,7.0,44,0.00,,,0.00,meteohub,2013-02-11 23:54:00,
2013-02-11 15:59:00,57.2,35.4,30.15,SSW,196,0.0,6.0,44,0.00,,,0.00,meteohub,2013-02-11 23:59:00,
2013-02-11 16:05:00,57.4,36.7,30.15,SSW,196,4.0,6.0,46,0.00,,,0.00,meteohub,2013-02-12 00:05:00,
2013-02-11 16:10:00,56.8,36.3,30.15,SSW,196,2.0,6.0,46,0.00,,,0.00,meteohub,2013-02-12 00:10:00,
2013-02-11 16:15:00,56.8,36.3,30.15,SSW,196,2.0,6.0,46,0.00,,,0.00,meteohub,2013-02-12 00:15:00,
2013-02-11 16:20:00,56.5,36.5,30.15,SSW,195,1.0,7.0,47,0.00,,,0.00,meteohub,2013-02-12 00:20:00,
2013-02-11 16:25:00,56.5,37.0,30.15,SSW,195,2.0,7.0,48,0.00,,,0.00,meteohub,2013-02-12 00:25:00,
2013-02-11 16:31:00,56.5,37.0,30.16,SSW,195,2.0,7.0,48,0.00,,,0.00,meteohub,2013-02-12 00:31:00,
2013-02-11 16:36:00,56.3,36.9,30.15,SSW,195,3.0,4.0,48,0.00,,,0.00,meteohub,2013-02-12 00:36:00,
2013-02-11 16:41:00,56.1,37.2,30.15,SSW,195,1.0,4.0,49,0.00,,,0.00,meteohub,2013-02-12 00:41:00,
2013-02-11 16:46:00,55.9,37.0,30.15,SSW,195,1.0,6.0,49,0.00,,,0.00,meteohub,2013-02-12 00:46:00,
2013-02-11 16:51:00,55.9,37.0,30.15,SSW,195,2.0,6.0,49,0.00,,,0.00,meteohub,2013-02-12 00:51:00,
2013-02-11 16:59:00,55.8,37.4,30.15,SSW,195,0.0,5.0,50,0.00,,,0.00,meteohub,2013-02-12 00:59:00,
2013-02-11 17:04:00,55.6,37.2,30.15,SSW,195,2.0,5.0,50,0.00,,,0.00,meteohub,2013-02-12 01:04:00,
2013-02-11 17:09:00,55.2,37.4,30.15,SSW,195,2.0,5.0,51,0.00,,,0.00,meteohub,2013-02-12 01:09:00,
2013-02-11 17:15:00,55.0,37.2,30.15,SSW,195,0.0,3.0,51,0.00,,,0.00,meteohub,2013-02-12 01:15:00,
2013-02-11 17:20:00,54.5,36.7,30.15,SSW,195,1.0,4.0,51,0.00,,,0.00,meteohub,2013-02-12 01:20:00,
2013-02-11 17:25:00,54.1,36.3,30.15,SSW,195,0.0,4.0,51,0.00,,,0.00,meteohub,2013-02-12 01:25:00,
2013-02-11 17:30:00,53.8,36.5,30.16,SSW,195,1.0,4.0,52,0.00,,,0.00,meteohub,2013-02-12 01:30:00,
2013-02-11 17:35:00,53.2,36.1,30.16,SSW,195,0.0,4.0,52,0.00,,,0.00,meteohub,2013-02-12 01:35:00,
2013-02-11 17:40:00,52.7,36.0,30.16,SSW,195,0.0,2.0,53,0.00,,,0.00,meteohub,2013-02-12 01:40:00,
2013-02-11 17:46:00,52.3,36.7,30.16,SSW,195,0.0,3.0,55,0.00,,,0.00,meteohub,2013-02-12 01:46:00,
2013-02-11 17:51:00,51.6,36.5,30.16,SSW,195,0.0,3.0,56,0.00,,,0.00,meteohub,2013-02-12 01:51:00,
2013-02-11 17:56:00,51.3,36.1,30.16,SSW,195,0.0,3.0,56,0.00,,,0.00,meteohub,2013-02-12 01:56:00,
2013-02-11 18:01:00,50.9,35.8,30.17,SSW,195,0.0,1.0,56,0.00,,,0.00,meteohub,2013-02-12 02:01:00,
2013-02-11 18:06:00,50.7,35.6,30.17,SSW,195,0.0,1.0,56,0.00,,,0.00,meteohub,2013-02-12 02:06:00,
2013-02-11 18:11:00,50.5,36.0,30.17,SSW,195,0.0,1.0,57,0.00,,,0.00,meteohub,2013-02-12 02:11:00,
2013-02-11 18:17:00,50.4,36.1,30.17,SSW,195,0.0,1.0,58,0.00,,,0.00,meteohub,2013-02-12 02:17:00,
2013-02-11 18:22:00,50.4,36.1,30.17,SSW,195,0.0,1.0,58,0.00,,,0.00,meteohub,2013-02-12 02:22:00,
2013-02-11 18:27:00,50.2,36.0,30.18,SSW,195,0.0,1.0,58,0.00,,,0.00,meteohub,2013-02-12 02:27:00,
2013-02-11 18:32:00,50.4,36.1,30.18,SSW,195,0.0,2.0,58,0.00,,,0.00,meteohub,2013-02-12 02:32:00,
2013-02-11 18:37:00,50.2,36.0,30.18,SSW,195,0.0,2.0,58,0.00,,,0.00,meteohub,2013-02-12 02:37:00,
2013-02-11 18:42:00,50.0,35.8,30.18,SSW,195,0.0,1.0,58,0.00,,,0.00,meteohub,2013-02-12 02:42:00,
2013-02-11 18:48:00,49.6,35.4,30.18,SSW,195,0.0,0.0,58,0.00,,,0.00,meteohub,2013-02-12 02:48:00,
2013-02-11 18:53:00,49.5,35.8,30.18,SSW,195,0.0,1.0,59,0.00,,,0.00,meteohub,2013-02-12 02:53:00,
2013-02-11 18:58:00,49.3,35.6,30.18,SSW,195,0.0,1.0,59,0.00,,,0.00,meteohub,2013-02-12 02:58:00,
2013-02-11 19:03:00,49.1,35.4,30.19,SSW,195,0.0,1.0,59,0.00,,,0.00,meteohub,2013-02-12 03:03:00,
2013-02-11 19:08:00,48.9,35.6,30.18,SSW,195,1.0,1.0,60,0.00,,,0.00,meteohub,2013-02-12 03:08:00,
2013-02-11 19:14:00,48.9,35.6,30.19,SSW,195,0.0,1.0,60,0.00,,,0.00,meteohub,2013-02-12 03:14:00,
2013-02-11 19:19:00,49.3,35.6,30.19,SSW,195,0.0,1.0,59,0.00,,,0.00,meteohub,2013-02-12 03:19:00,
2013-02-11 19:24:00,49.3,35.6,30.19,SSW,195,0.0,1.0,59,0.00,,,0.00,meteohub,2013-02-12 03:24:00,
2013-02-11 19:29:00,49.3,35.6,30.19,SSW,195,0.0,1.0,59,0.00,,,0.00,meteohub,2013-02-12 03:29:00,
2013-02-11 19:34:00,49.3,35.6,30.19,SSW,195,0.0,1.0,59,0.00,,,0.00,meteohub,2013-02-12 03:34:00,
2013-02-11 19:39:00,49.3,35.6,30.19,SSW,195,0.0,1.0,59,0.00,,,0.00,meteohub,2013-02-12 03:39:00,
2013-02-11 19:45:00,49.1,35.4,30.19,SSW,195,0.0,1.0,59,0.00,,,0.00,meteohub,2013-02-12 03:45:00,
2013-02-11 19:50:00,48.9,35.6,30.19,SSW,195,1.0,1.0,60,0.00,,,0.00,meteohub,2013-02-12 03:50:00,
2013-02-11 19:55:00,48.9,34.9,30.19,SSW,195,0.0,1.0,58,0.00,,,0.00,meteohub,2013-02-12 03:55:00,
2013-02-11 20:00:00,49.1,34.9,30.19,SSW,195,0.0,1.0,58,0.00,,,0.00,meteohub,2013-02-12 04:00:00,
2013-02-11 20:05:00,49.1,34.9,30.19,SSW,195,0.0,1.0,58,0.00,,,0.00,meteohub,2013-02-12 04:05:00,
2013-02-11 20:11:00,49.1,34.5,30.19,SSW,195,0.0,1.0,57,0.00,,,0.00,meteohub,2013-02-12 04:11:00,
2013-02-11 20:16:00,49.1,34.5,30.19,SSW,195,0.0,1.0,57,0.00,,,0.00,meteohub,2013-02-12 04:16:00,
2013-02-11 20:21:00,49.1,34.9,30.19,SSW,195,0.0,1.0,58,0.00,,,0.00,meteohub,2013-02-12 04:21:00,
2013-02-11 20:26:00,48.9,34.9,30.19,SSW,195,0.0,1.0,58,0.00,,,0.00,meteohub,2013-02-12 04:26:00,
2013-02-11 20:31:00,48.9,34.9,30.19,SSW,195,0.0,1.0,58,0.00,,,0.00,meteohub,2013-02-12 04:31:00,
2013-02-11 20:36:00,48.9,34.9,30.20,SSW,195,0.0,1.0,58,0.00,,,0.00,meteohub,2013-02-12 04:36:00,
2013-02-11 20:42:00,48.7,34.7,30.20,SSW,195,1.0,1.0,58,0.00,,,0.00,meteohub,2013-02-12 04:42:00,
2013-02-11 20:47:00,48.7,34.7,30.20,SSW,195,0.0,1.0,58,0.00,,,0.00,meteohub,2013-02-12 04:47:00,
2013-02-11 20:52:00,48.7,34.7,30.20,SSW,195,0.0,1.0,58,0.00,,,0.00,meteohub,2013-02-12 04:52:00,
2013-02-11 20:57:00,48.6,34.9,30.21,SSW,195,0.0,1.0,59,0.00,,,0.00,meteohub,2013-02-12 04:57:00,
2013-02-11 21:00:00,48.6,34.9,30.20,SSW,195,0.0,1.0,59,0.00,,,0.00,meteohub,2013-02-12 05:00:00,
2013-02-11 21:01:00,48.6,34.9,30.20,SSW,195,0.0,1.0,59,0.00,,,0.00,meteohub,2013-02-12 05:01:00,
2013-02-11 21:02:00,48.6,34.9,30.20,SSW,195,0.0,1.0,59,0.00,,,0.00,meteohub,2013-02-12 05:02:00,
2013-02-11 21:07:00,48.7,35.1,30.21,SSW,194,0.0,1.0,59,0.00,,,0.00,meteohub,2013-02-12 05:07:00,
2013-02-11 21:12:00,48.7,35.1,30.21,SSW,194,0.0,1.0,59,0.00,,,0.00,meteohub,2013-02-12 05:12:00,
2013-02-11 21:17:00,48.7,35.1,30.21,SSW,193,0.0,1.0,59,0.00,,,0.00,meteohub,2013-02-12 05:17:00,
2013-02-11 21:22:00,48.7,35.1,30.21,SSW,193,0.0,1.0,59,0.00,,,0.00,meteohub,2013-02-12 05:22:00,
2013-02-11 21:28:00,48.9,35.2,30.21,SSW,193,0.0,1.0,59,0.00,,,0.00,meteohub,2013-02-12 05:28:00,
2013-02-11 21:33:00,48.7,35.1,30.21,SSW,193,0.0,1.0,59,0.00,,,0.00,meteohub,2013-02-12 05:33:00,
2013-02-11 21:39:00,48.6,34.9,30.21,SSW,193,0.0,1.0,59,0.00,,,0.00,meteohub,2013-02-12 05:39:00,
2013-02-11 21:44:00,48.6,35.2,30.21,SSW,193,0.0,1.0,60,0.00,,,0.00,meteohub,2013-02-12 05:44:00,
2013-02-11 21:49:00,48.6,35.2,30.21,SSW,192,0.0,1.0,60,0.00,,,0.00,meteohub,2013-02-12 05:49:00,
2013-02-11 21:54:00,48.7,35.4,30.21,SSW,192,0.0,1.0,60,0.00,,,0.00,meteohub,2013-02-12 05:54:00,
2013-02-11 21:59:00,48.7,35.4,30.21,SSW,192,1.0,1.0,60,0.00,,,0.00,meteohub,2013-02-12 05:59:00,
2013-02-11 22:04:00,48.7,35.1,30.21,South,190,0.0,1.0,59,0.00,,,0.00,meteohub,2013-02-12 06:04:00,
2013-02-11 22:09:00,48.9,35.2,30.21,South,189,0.0,1.0,59,0.00,,,0.00,meteohub,2013-02-12 06:09:00,
2013-02-11 22:15:00,48.9,35.2,30.21,South,189,0.0,1.0,59,0.00,,,0.00,meteohub,2013-02-12 06:15:00,
2013-02-11 22:20:00,48.9,35.2,30.22,South,188,1.0,1.0,59,0.00,,,0.00,meteohub,2013-02-12 06:20:00,
2013-02-11 22:25:00,48.9,35.2,30.22,South,186,0.0,2.0,59,0.00,,,0.00,meteohub,2013-02-12 06:25:00,
2013-02-11 22:30:00,48.9,34.9,30.21,South,186,0.0,2.0,58,0.00,,,0.00,meteohub,2013-02-12 06:30:00,
2013-02-11 22:35:00,48.9,35.2,30.21,South,185,0.0,2.0,59,0.00,,,0.00,meteohub,2013-02-12 06:35:00,
2013-02-11 22:41:00,48.7,35.1,30.22,South,185,0.0,1.0,59,0.00,,,0.00,meteohub,2013-02-12 06:41:00,
2013-02-11 22:46:00,48.6,34.9,30.22,South,185,0.0,1.0,59,0.00,,,0.00,meteohub,2013-02-12 06:46:00,
2013-02-11 22:51:00,48.6,34.9,30.22,South,185,1.0,1.0,59,0.00,,,0.00,meteohub,2013-02-12 06:51:00,
2013-02-11 22:56:00,48.6,34.9,30.22,South,185,1.0,1.0,59,0.00,,,0.00,meteohub,2013-02-12 06:56:00,
2013-02-11 23:01:00,48.6,34.9,30.22,South,183,1.0,1.0,59,0.00,,,0.00,meteohub,2013-02-12 07:01:00,
2013-02-11 23:07:00,48.6,34.9,30.22,South,181,0.0,1.0,59,0.00,,,0.00,meteohub,2013-02-12 07:07:00,
2013-02-11 23:12:00,48.6,34.9,30.22,South,181,0.0,2.0,59,0.00,,,0.00,meteohub,2013-02-12 07:12:00,
2013-02-11 23:17:00,48.7,35.1,30.22,South,181,1.0,2.0,59,0.00,,,0.00,meteohub,2013-02-12 07:17:00,
2013-02-11 23:22:00,48.7,35.1,30.22,South,181,1.0,2.0,59,0.00,,,0.00,meteohub,2013-02-12 07:22:00,
2013-02-11 23:27:00,48.6,34.9,30.23,South,180,0.0,1.0,59,0.00,,,0.00,meteohub,2013-02-12 07:27:00,
2013-02-11 23:32:00,48.6,34.9,30.23,South,179,0.0,1.0,59,0.00,,,0.00,meteohub,2013-02-12 07:32:00,
2013-02-11 23:38:00,48.4,34.7,30.23,South,179,1.0,1.0,59,0.00,,,0.00,meteohub,2013-02-12 07:38:00,
2013-02-11 23:43:00,48.4,34.7,30.23,South,179,0.0,1.0,59,0.00,,,0.00,meteohub,2013-02-12 07:43:00,
2013-02-11 23:48:00,48.2,34.5,30.24,South,179,0.0,1.0,59,0.00,,,0.00,meteohub,2013-02-12 07:48:00,
2013-02-11 23:53:00,48.2,34.5,30.24,South,179,0.0,1.0,59,0.00,,,0.00,meteohub,2013-02-12 07:53:00,
2013-02-11 23:58:00,48.4,34.7,30.23,South,179,1.0,1.0,59,0.00,,,0.00,meteohub,2013-02-12 07:58:00,